createdAt,value
2018-04-08T00:00:28.134Z,53.50
2018-04-08T00:02:55.653Z,52.80
2018-04-08T00:05:23.898Z,53.10
2018-04-08T00:07:51.375Z,53.10
2018-04-08T00:10:19.637Z,53.20
2018-04-08T00:12:47.093Z,53.00
2018-04-08T00:15:14.578Z,53.20
2018-04-08T00:17:42.895Z,53.90
2018-04-08T00:20:10.399Z,53.90
2018-04-08T00:22:37.895Z,54.60
2018-04-08T00:25:05.419Z,54.30
2018-04-08T00:27:33.720Z,55.00
2018-04-08T00:30:01.201Z,55.00
2018-04-08T00:32:28.669Z,55.60
2018-04-08T00:34:56.302Z,55.30
2018-04-08T00:37:23.795Z,55.80
2018-04-08T00:39:52.045Z,55.40
2018-04-08T00:42:19.520Z,55.40
2018-04-08T00:44:47.049Z,55.20
2018-04-08T00:47:14.561Z,55.20
2018-04-08T00:49:42.048Z,55.30
2018-04-08T00:52:10.297Z,56.20
2018-04-08T00:54:37.804Z,56.10
2018-04-08T00:57:05.303Z,56.60
2018-04-08T00:59:33.521Z,57.10
2018-04-08T01:02:01.805Z,57.00
2018-04-08T01:04:29.314Z,57.00
2018-04-08T01:06:56.816Z,57.20
2018-04-08T01:09:25.059Z,57.90
2018-04-08T01:11:52.568Z,57.90
2018-04-08T01:14:20.050Z,57.90
2018-04-08T01:16:47.564Z,58.20
2018-04-08T01:19:15.802Z,58.80
2018-04-08T01:21:43.295Z,58.80
2018-04-08T01:24:11.583Z,59.10
2018-04-08T01:26:39.823Z,59.20
2018-04-08T01:29:07.346Z,59.30
2018-04-08T01:31:34.832Z,58.90
2018-04-08T01:34:02.335Z,58.50
2018-04-08T01:36:31.147Z,59.00
2018-04-08T01:38:59.710Z,59.00
2018-04-08T01:41:27.309Z,59.10
2018-04-08T01:43:54.908Z,59.50
2018-04-08T01:46:23.024Z,59.50
2018-04-08T01:48:51.178Z,59.70
2018-04-08T01:51:19.445Z,59.70
2018-04-08T01:53:47.723Z,59.80
2018-04-08T01:56:15.969Z,59.70
2018-04-08T01:58:43.552Z,59.60
2018-04-08T02:01:11.799Z,61.00
2018-04-08T02:03:39.364Z,60.00
2018-04-08T02:06:06.855Z,59.90
2018-04-08T02:08:35.128Z,59.50
2018-04-08T02:11:03.402Z,59.70
2018-04-08T02:13:31.679Z,60.50
2018-04-08T02:15:59.961Z,61.70
2018-04-08T02:18:28.239Z,61.50
2018-04-08T02:20:56.465Z,61.40
2018-04-08T02:23:23.976Z,61.50
2018-04-08T02:25:52.235Z,62.70
2018-04-08T02:28:19.696Z,62.70
2018-04-08T02:30:48.064Z,62.00
2018-04-08T02:33:15.665Z,61.40
2018-04-08T02:35:43.316Z,62.90
2018-04-08T02:38:10.881Z,63.20
2018-04-08T02:40:38.479Z,63.10
2018-04-08T02:43:06.049Z,63.50
2018-04-08T02:45:33.540Z,63.70
2018-04-08T02:48:01.073Z,64.10
2018-04-08T02:50:28.556Z,64.20
2018-04-08T02:52:56.067Z,63.50
2018-04-08T02:55:23.540Z,64.10
2018-04-08T02:57:51.042Z,64.50
2018-04-08T03:00:19.312Z,65.00
2018-04-08T03:02:47.578Z,65.20
2018-04-08T03:05:15.070Z,65.10
2018-04-08T03:07:43.219Z,65.90
2018-04-08T03:10:11.460Z,65.80
2018-04-08T03:12:38.945Z,65.80
2018-04-08T03:15:06.417Z,65.90
2018-04-08T03:17:34.693Z,66.10
2018-04-08T03:20:02.947Z,66.00
2018-04-08T03:22:30.608Z,66.00
2018-04-08T03:24:58.088Z,66.00
2018-04-08T03:27:25.604Z,66.20
2018-04-08T03:29:53.892Z,65.70
2018-04-08T03:32:21.379Z,66.50
2018-04-08T03:34:48.917Z,65.70
2018-04-08T03:37:16.385Z,65.70
2018-04-08T03:39:43.921Z,66.00
2018-04-08T03:42:11.400Z,66.00
2018-04-08T03:44:38.875Z,66.10
2018-04-08T03:47:07.148Z,66.00
2018-04-08T03:49:35.424Z,66.10
2018-04-08T03:52:03.664Z,66.00
2018-04-08T03:54:31.155Z,65.90
2018-04-08T03:56:58.621Z,65.60
2018-04-08T03:59:26.896Z,64.50
2018-04-08T04:01:55.168Z,64.20
2018-04-08T04:04:22.683Z,64.20
2018-04-08T04:06:50.188Z,63.70
2018-04-08T04:09:18.438Z,64.10
2018-04-08T04:11:45.904Z,64.10
2018-04-08T04:14:13.396Z,65.20
2018-04-08T04:16:40.923Z,64.90
2018-04-08T04:19:20.361Z,65.80
2018-04-08T04:21:59.772Z,65.50
2018-04-08T04:24:39.263Z,65.90
2018-04-08T04:27:08.185Z,65.30
2018-04-08T04:29:36.366Z,65.30
2018-04-08T04:32:03.879Z,65.20
2018-04-08T04:34:31.396Z,65.10
2018-04-08T04:36:58.895Z,64.80
2018-04-08T04:39:26.393Z,64.50
2018-04-08T04:41:53.912Z,64.10
2018-04-08T04:44:21.428Z,64.20
2018-04-08T04:46:48.929Z,63.40
2018-04-08T04:49:16.412Z,63.90
2018-04-08T04:51:43.912Z,63.90
2018-04-08T04:54:11.421Z,63.60
2018-04-08T04:56:38.938Z,63.60
2018-04-08T04:59:06.603Z,63.10
2018-04-08T05:01:34.099Z,63.10
2018-04-08T05:04:02.364Z,62.60
2018-04-08T05:06:29.827Z,63.40
2018-04-08T05:08:57.333Z,62.60
2018-04-08T05:11:25.981Z,62.20
2018-04-08T05:13:53.523Z,61.90
2018-04-08T05:16:20.984Z,60.10
2018-04-08T05:18:48.515Z,59.50
2018-04-08T05:21:16.079Z,59.00
2018-04-08T05:23:43.569Z,58.80
2018-04-08T05:26:11.883Z,59.40
2018-04-08T05:28:39.406Z,59.40
2018-04-08T05:31:07.718Z,57.70
2018-04-08T05:33:35.231Z,57.70
2018-04-08T05:36:02.732Z,57.20
2018-04-08T05:38:30.216Z,56.20
2018-04-08T05:40:58.874Z,55.70
2018-04-08T05:43:26.372Z,54.90
2018-04-08T05:45:53.897Z,54.80
2018-04-08T05:48:21.408Z,54.60
2018-04-08T05:50:48.965Z,54.80
2018-04-08T05:53:16.448Z,54.70
2018-04-08T05:55:44.763Z,50.10
2018-04-08T05:58:12.260Z,50.10
2018-04-08T06:03:13.690Z,45.80
2018-04-08T06:05:41.329Z,42.60
2018-04-08T06:08:09.149Z,41.50
2018-04-08T06:10:37.541Z,38.40
2018-04-08T06:13:05.970Z,36.40
2018-04-08T06:15:33.594Z,36.30
2018-04-08T06:18:01.310Z,35.60
2018-04-08T06:20:28.852Z,34.80
2018-04-08T06:22:56.506Z,35.90
2018-04-08T06:25:24.096Z,34.60
2018-04-08T06:27:52.405Z,36.30
2018-04-08T06:30:20.680Z,35.10
2018-04-08T06:32:49.582Z,33.60
2018-04-08T06:35:17.135Z,33.50
2018-04-08T06:37:45.403Z,32.70
2018-04-08T06:40:13.752Z,32.70
2018-04-08T06:42:41.267Z,32.00
2018-04-08T06:45:08.754Z,31.00
2018-04-08T06:47:37.181Z,31.80
2018-04-08T06:50:05.451Z,30.00
2018-04-08T06:52:34.214Z,31.50
2018-04-08T06:55:01.757Z,31.50
2018-04-08T06:57:29.283Z,30.40
2018-04-08T06:59:57.598Z,33.00
2018-04-08T07:02:25.076Z,33.10
2018-04-08T07:04:52.662Z,32.00
2018-04-08T07:07:20.954Z,33.50
2018-04-08T07:09:48.446Z,34.20
2018-04-08T07:12:15.948Z,36.50
2018-04-08T07:14:43.411Z,40.00
2018-04-08T07:17:11.670Z,42.10
2018-04-08T07:19:39.229Z,42.10
2018-04-08T07:22:06.700Z,42.80
2018-04-08T07:24:34.227Z,43.40
2018-04-08T07:27:03.119Z,43.90
2018-04-08T07:29:30.599Z,43.20
2018-04-08T07:31:58.146Z,43.30
2018-04-08T07:34:25.840Z,43.60
2018-04-08T07:36:53.334Z,43.50
2018-04-08T07:39:21.436Z,43.20
2018-04-08T07:41:48.954Z,43.60
2018-04-08T07:44:16.480Z,44.00
2018-04-08T07:46:44.151Z,43.80
2018-04-08T07:49:12.409Z,43.60
2018-04-08T07:51:39.888Z,43.70
2018-04-08T07:54:08.205Z,42.90
2018-04-08T07:56:35.700Z,42.80
2018-04-08T07:59:03.192Z,42.70
2018-04-08T08:01:30.805Z,42.60
2018-04-08T08:03:58.330Z,42.70
2018-04-08T08:06:25.859Z,42.00
2018-04-08T08:08:54.144Z,41.50
2018-04-08T08:11:22.397Z,41.70
2018-04-08T08:13:49.896Z,41.60
2018-04-08T08:16:17.433Z,41.10
2018-04-08T08:18:44.953Z,41.00
2018-04-08T08:21:12.472Z,41.50
2018-04-08T08:23:40.012Z,41.80
2018-04-08T08:26:07.525Z,41.20
2018-04-08T08:28:35.658Z,41.30
2018-04-08T08:31:03.312Z,41.10
2018-04-08T08:33:30.812Z,41.30
2018-04-08T08:35:58.393Z,41.20
2018-04-08T08:38:25.886Z,41.30
2018-04-08T08:40:54.160Z,41.30
2018-04-08T08:43:21.672Z,41.30
2018-04-08T08:45:49.185Z,41.30
2018-04-08T08:48:17.501Z,41.90
2018-04-08T08:50:44.992Z,41.80
2018-04-08T08:53:12.492Z,41.30
2018-04-08T08:55:40.033Z,41.10
2018-04-08T08:58:07.508Z,40.70
2018-04-08T09:00:35.025Z,40.50
2018-04-08T09:03:02.529Z,40.40
2018-04-08T09:05:30.048Z,41.00
2018-04-08T09:07:57.542Z,41.20
2018-04-08T09:10:25.070Z,41.60
2018-04-08T09:12:52.605Z,41.30
2018-04-08T09:15:20.204Z,41.10
2018-04-08T09:17:48.540Z,41.20
2018-04-08T09:20:18.049Z,41.20
2018-04-08T09:22:51.180Z,40.60
2018-04-08T09:25:20.480Z,40.10
2018-04-08T09:27:47.963Z,40.10
2018-04-08T09:30:15.473Z,40.30
2018-04-08T09:32:43.167Z,40.10
2018-04-08T09:35:10.870Z,40.50
2018-04-08T09:37:38.400Z,40.60
2018-04-08T09:40:06.026Z,40.00
2018-04-08T09:42:34.497Z,40.80
2018-04-08T09:45:02.082Z,40.70
2018-04-08T09:47:30.360Z,40.50
2018-04-08T09:49:57.975Z,40.50
2018-04-08T09:52:25.886Z,40.30
2018-04-08T09:54:53.432Z,40.90
2018-04-08T09:57:21.009Z,39.60
2018-04-08T09:59:49.426Z,38.10
2018-04-08T10:05:23.545Z,38.60
2018-04-08T10:07:58.240Z,38.50
2018-04-08T10:10:26.196Z,38.50
2018-04-08T10:12:53.766Z,38.10
2018-04-08T10:15:21.671Z,36.70
2018-04-08T10:17:50.146Z,36.30
2018-04-08T10:20:17.808Z,36.30
2018-04-08T10:22:46.254Z,35.50
2018-04-08T10:25:14.773Z,35.30
2018-04-08T10:27:43.183Z,35.20
2018-04-08T10:30:10.986Z,32.70
2018-04-08T10:32:38.564Z,31.50
2018-04-08T10:35:06.862Z,29.90
2018-04-08T10:37:34.648Z,29.90
2018-04-08T10:40:02.228Z,29.40
2018-04-08T10:42:29.711Z,29.30
2018-04-08T10:44:57.351Z,29.30
2018-04-08T10:47:25.105Z,28.90
2018-04-08T10:49:52.839Z,28.60
2018-04-08T10:52:21.226Z,28.20
2018-04-08T10:54:48.882Z,28.30
2018-04-08T10:57:16.429Z,27.70
2018-04-08T10:59:44.992Z,28.50
2018-04-08T11:02:12.566Z,28.40
2018-04-08T11:04:40.170Z,28.10
2018-04-08T11:07:08.384Z,27.80
2018-04-08T11:09:35.904Z,28.10
2018-04-08T11:12:03.622Z,28.20
2018-04-08T11:14:31.929Z,27.70
2018-04-08T11:16:59.481Z,27.70
2018-04-08T11:19:27.020Z,27.40
2018-04-08T11:21:55.291Z,27.00
2018-04-08T11:24:23.547Z,26.90
2018-04-08T11:26:51.085Z,26.90
2018-04-08T11:29:18.591Z,27.30
2018-04-08T11:31:47.067Z,27.60
2018-04-08T11:34:14.732Z,27.60
2018-04-08T11:36:42.991Z,27.10
2018-04-08T11:39:10.534Z,27.10
2018-04-08T11:41:38.024Z,27.00
2018-04-08T11:44:06.324Z,27.00
2018-04-08T11:46:33.823Z,27.00
2018-04-08T11:49:01.556Z,26.80
2018-04-08T11:51:29.402Z,25.90
2018-04-08T11:53:57.054Z,27.60
2018-04-08T11:56:25.307Z,30.40
2018-04-08T11:58:52.858Z,30.30
2018-04-08T12:01:20.416Z,31.20
2018-04-08T12:03:48.130Z,32.20
2018-04-08T12:06:16.401Z,33.70
2018-04-08T12:08:43.929Z,33.70
2018-04-08T12:11:11.468Z,33.30
2018-04-08T12:13:38.970Z,33.10
2018-04-08T12:16:07.240Z,33.60
2018-04-08T12:18:35.518Z,31.30
2018-04-08T12:21:03.040Z,30.80
2018-04-08T12:23:30.559Z,30.40
2018-04-08T12:25:58.871Z,29.80
2018-04-08T12:28:26.570Z,29.70
2018-04-08T12:30:54.832Z,24.20
2018-04-08T12:33:22.406Z,24.20
2018-04-08T12:35:50.198Z,24.30
2018-04-08T12:38:17.636Z,24.50
2018-04-08T12:40:46.112Z,24.80
2018-04-08T12:43:14.050Z,24.30
2018-04-08T12:45:41.627Z,24.10
2018-04-08T12:48:09.235Z,24.10
2018-04-08T12:50:36.739Z,23.90
2018-04-08T12:53:04.933Z,23.80
2018-04-08T12:55:33.270Z,23.70
2018-04-08T12:58:00.802Z,23.70
2018-04-08T13:00:28.288Z,25.40
2018-04-08T13:02:55.790Z,29.60
2018-04-08T13:05:23.273Z,30.40
2018-04-08T13:07:51.533Z,31.10
2018-04-08T13:10:19.800Z,30.80
2018-04-08T13:12:48.643Z,30.80
2018-04-08T13:15:16.128Z,30.90
2018-04-08T13:17:43.639Z,30.40
2018-04-08T13:20:11.139Z,30.50
2018-04-08T13:22:38.771Z,29.50
2018-04-08T13:25:06.288Z,29.20
2018-04-08T13:27:33.890Z,29.70
2018-04-08T13:30:01.484Z,29.10
2018-04-08T13:32:28.990Z,29.10
2018-04-08T13:34:57.315Z,29.00
2018-04-08T13:37:25.052Z,29.00
2018-04-08T13:39:53.448Z,28.40
2018-04-08T13:42:20.992Z,28.30
2018-04-08T13:44:48.551Z,27.40
2018-04-08T13:47:16.072Z,27.20
2018-04-08T13:49:43.687Z,27.40
2018-04-08T13:52:11.187Z,27.60
2018-04-08T13:54:38.681Z,27.50
2018-04-08T13:57:06.198Z,27.80
2018-04-08T13:59:33.679Z,26.40
2018-04-08T14:02:02.097Z,28.40
2018-04-08T14:04:30.324Z,29.30
2018-04-08T14:06:58.564Z,29.80
2018-04-08T14:09:26.072Z,29.80
2018-04-08T14:11:54.329Z,27.20
2018-04-08T14:14:21.895Z,27.10
2018-04-08T14:16:49.526Z,26.60
2018-04-08T14:19:17.854Z,28.30
2018-04-08T14:21:45.412Z,29.50
2018-04-08T14:24:12.909Z,29.30
2018-04-08T14:26:40.425Z,27.40
2018-04-08T14:29:08.697Z,27.10
2018-04-08T14:31:36.203Z,27.10
2018-04-08T14:34:03.807Z,29.20
2018-04-08T14:36:32.136Z,29.50
2018-04-08T14:38:59.638Z,29.50
2018-04-08T14:41:27.156Z,29.10
2018-04-08T14:43:54.682Z,29.30
2018-04-08T14:46:22.258Z,29.30
2018-04-08T14:48:49.878Z,29.50
2018-04-08T14:51:18.171Z,29.20
2018-04-08T14:53:46.422Z,29.60
2018-04-08T14:56:13.932Z,29.60
2018-04-08T14:58:41.484Z,29.80
2018-04-08T15:01:09.052Z,29.60
2018-04-08T15:03:36.539Z,29.90
2018-04-08T15:06:04.048Z,30.00
2018-04-08T15:08:31.541Z,30.20
2018-04-08T15:10:59.025Z,30.10
2018-04-08T15:13:26.530Z,30.10
2018-04-08T15:15:54.014Z,30.00
2018-04-08T15:18:21.506Z,29.90
2018-04-08T15:20:49.044Z,30.00
2018-04-08T15:23:16.737Z,30.30
2018-04-08T15:25:44.226Z,30.00
2018-04-08T15:28:11.749Z,30.70
2018-04-08T15:30:39.336Z,30.00
2018-04-08T15:33:06.859Z,29.50
2018-04-08T15:35:34.939Z,29.90
2018-04-08T15:38:02.443Z,29.60
2018-04-08T15:40:29.928Z,29.70
2018-04-08T15:42:57.558Z,29.70
2018-04-08T15:45:25.107Z,29.60
2018-04-08T15:47:53.362Z,29.90
2018-04-08T15:50:20.845Z,29.90
2018-04-08T15:52:49.121Z,30.20
2018-04-08T15:55:17.393Z,30.60
2018-04-08T15:57:45.718Z,30.80
2018-04-08T16:00:13.285Z,30.80
2018-04-08T16:02:40.902Z,30.80
2018-04-08T16:05:08.363Z,31.30
2018-04-08T16:07:35.917Z,31.90
2018-04-08T16:10:07.267Z,31.20
2018-04-08T16:12:35.507Z,31.20
2018-04-08T16:15:03.037Z,31.20
2018-04-08T16:17:30.535Z,31.10
2018-04-08T16:19:58.060Z,31.00
2018-04-08T16:22:25.588Z,31.20
2018-04-08T16:24:53.150Z,31.30
2018-04-08T16:27:21.335Z,31.20
2018-04-08T16:29:48.841Z,31.20
2018-04-08T16:32:16.318Z,31.20
2018-04-08T16:34:44.589Z,31.70
2018-04-08T16:37:13.118Z,32.20
2018-04-08T16:39:40.613Z,32.20
2018-04-08T16:42:08.124Z,32.00
2018-04-08T16:44:35.616Z,32.10
2018-04-08T16:47:03.244Z,33.10
2018-04-08T16:49:30.739Z,32.50
2018-04-08T16:51:58.228Z,32.70
2018-04-08T16:54:26.484Z,33.10
2018-04-08T16:56:53.974Z,33.00
2018-04-08T16:59:22.218Z,33.20
2018-04-08T17:01:49.817Z,33.20
2018-04-08T17:04:17.323Z,33.30
2018-04-08T17:06:44.855Z,33.20
2018-04-08T17:09:12.321Z,33.30
2018-04-08T17:11:40.390Z,33.60
2018-04-08T17:14:08.001Z,33.80
2018-04-08T17:16:35.491Z,33.80
2018-04-08T17:19:02.995Z,34.30
2018-04-08T17:21:31.270Z,34.30
2018-04-08T17:23:58.755Z,34.30
2018-04-08T17:26:26.250Z,34.50
2018-04-08T17:28:53.740Z,34.60
2018-04-08T17:31:21.222Z,35.00
2018-04-08T17:33:48.720Z,35.00
2018-04-08T17:36:16.232Z,35.40
2018-04-08T17:38:43.719Z,35.50
2018-04-08T17:41:11.985Z,35.10
2018-04-08T17:43:40.238Z,35.10
2018-04-08T17:46:07.738Z,35.00
2018-04-08T17:48:35.979Z,34.70
2018-04-08T17:51:03.481Z,34.70
2018-04-08T17:53:31.029Z,35.10
2018-04-08T17:55:59.338Z,34.80
2018-04-08T17:58:26.868Z,34.80
2018-04-08T18:00:55.131Z,34.70
2018-04-08T18:03:23.381Z,34.40
2018-04-08T18:05:50.907Z,34.40
2018-04-08T18:08:18.445Z,34.40
2018-04-08T18:10:45.960Z,35.10
2018-04-08T18:13:13.449Z,34.80
2018-04-08T18:15:41.743Z,35.30
2018-04-08T18:18:09.243Z,35.30
2018-04-08T18:20:36.784Z,35.80
2018-04-08T18:23:04.290Z,36.30
2018-04-08T18:25:32.024Z,36.50
2018-04-08T18:27:59.801Z,37.10
2018-04-08T18:30:27.291Z,37.00
2018-04-08T18:32:55.568Z,37.60
2018-04-08T18:35:23.848Z,38.10
2018-04-08T18:37:52.141Z,40.00
2018-04-08T18:40:19.706Z,40.00
2018-04-08T18:42:47.344Z,40.00
2018-04-08T18:45:15.658Z,42.30
2018-04-08T18:47:43.215Z,41.60
2018-04-08T18:50:10.738Z,42.20
2018-04-08T18:52:38.810Z,42.50
2018-04-08T18:55:06.420Z,42.60
2018-04-08T18:57:33.921Z,43.00
2018-04-08T19:00:01.411Z,43.00
2018-04-08T19:02:28.961Z,43.30
2018-04-08T19:04:56.514Z,43.60
2018-04-08T19:07:24.855Z,45.80
2018-04-08T19:09:52.517Z,45.20
2018-04-08T19:12:20.158Z,46.40
2018-04-08T19:14:53.436Z,46.50
2018-04-08T19:17:26.912Z,46.60
2018-04-08T19:19:54.522Z,46.70
2018-04-08T19:22:22.920Z,46.90
2018-04-08T19:24:51.502Z,46.90
2018-04-08T19:27:24.953Z,47.30
2018-04-08T19:29:52.674Z,48.00
2018-04-08T19:32:20.598Z,48.50
2018-04-08T19:34:48.271Z,48.30
2018-04-08T19:37:15.998Z,48.80
2018-04-08T19:39:43.617Z,49.40
2018-04-08T19:42:11.365Z,49.70
2018-04-08T19:44:38.986Z,49.70
2018-04-08T19:47:06.842Z,49.90
2018-04-08T19:49:34.610Z,50.10
2018-04-08T19:52:02.258Z,50.20
2018-04-08T19:54:29.855Z,50.60
2018-04-08T19:56:57.704Z,51.30
2018-04-08T19:59:25.445Z,51.40
2018-04-08T20:01:53.261Z,51.50
2018-04-08T20:04:20.910Z,51.90
2018-04-08T20:06:48.611Z,51.90
2018-04-08T20:09:16.176Z,52.30
2018-04-08T20:11:43.996Z,52.50
2018-04-08T20:14:11.656Z,52.60
2018-04-08T20:16:39.298Z,52.70
2018-04-08T20:19:07.033Z,53.10
2018-04-08T20:21:34.882Z,52.80
2018-04-08T20:24:02.628Z,53.10
2018-04-08T20:26:30.301Z,53.10
2018-04-08T20:28:57.921Z,53.40
2018-04-08T20:31:25.678Z,53.60
2018-04-08T20:33:54.345Z,53.70
2018-04-08T20:36:22.089Z,53.60
2018-04-08T20:38:49.867Z,53.60
2018-04-08T20:41:18.328Z,55.30
2018-04-08T20:43:45.932Z,55.30
2018-04-08T20:46:13.699Z,54.90
2018-04-08T20:48:41.275Z,54.90
2018-04-08T20:51:09.715Z,54.40
2018-04-08T20:53:38.579Z,54.30
2018-04-08T20:56:06.205Z,54.30
2018-04-08T20:58:33.775Z,54.90
2018-04-08T21:01:01.264Z,54.90
2018-04-08T21:03:28.807Z,54.70
2018-04-08T21:05:57.070Z,55.00
2018-04-08T21:08:24.613Z,55.00
2018-04-08T21:10:52.890Z,55.70
2018-04-08T21:13:20.904Z,55.60
2018-04-08T21:15:48.401Z,55.60
2018-04-08T21:18:15.920Z,55.30
2018-04-08T21:20:43.453Z,54.90
2018-04-08T21:23:10.939Z,55.10
2018-04-08T21:25:38.442Z,55.60
2018-04-08T21:28:06.002Z,56.00
2018-04-08T21:30:33.573Z,56.50
2018-04-08T21:33:01.880Z,56.90
2018-04-08T21:35:29.418Z,56.90
2018-04-08T21:37:57.684Z,58.70
2018-04-08T21:40:25.973Z,58.50
2018-04-08T21:42:54.259Z,58.60
2018-04-08T21:45:22.057Z,58.60
2018-04-08T21:47:49.578Z,58.70
2018-04-08T21:50:17.080Z,59.10
2018-04-08T21:52:44.579Z,59.20
2018-04-08T21:55:12.160Z,59.40
2018-04-08T21:57:39.688Z,59.40
2018-04-08T22:00:07.189Z,59.90
2018-04-08T22:02:34.691Z,60.40
2018-04-08T22:05:02.242Z,60.90
2018-04-08T22:07:29.749Z,61.70
2018-04-08T22:09:58.012Z,62.20
2018-04-08T22:12:26.289Z,61.60
2018-04-08T22:14:53.836Z,61.50
2018-04-08T22:17:21.396Z,61.60
2018-04-08T22:19:48.852Z,61.90
2018-04-08T22:22:16.411Z,62.70
2018-04-08T22:24:43.931Z,63.20
2018-04-08T22:27:11.406Z,63.50
2018-04-08T22:29:38.935Z,63.80
2018-04-08T22:32:06.429Z,64.40
2018-04-08T22:34:33.924Z,64.30
2018-04-08T22:37:02.223Z,65.20
2018-04-08T22:39:29.733Z,65.20
2018-04-08T22:41:57.247Z,65.30
2018-04-08T22:44:25.380Z,65.30
2018-04-08T22:46:52.896Z,65.70
2018-04-08T22:49:20.372Z,65.50
2018-04-08T22:51:47.989Z,66.00
2018-04-08T22:54:15.476Z,65.30
2018-04-08T22:56:42.977Z,65.80
2018-04-08T22:59:11.233Z,65.30
2018-04-08T23:01:38.725Z,65.10
2018-04-08T23:04:07.028Z,65.40
2018-04-08T23:06:34.552Z,65.40
2018-04-08T23:09:02.818Z,65.20
2018-04-08T23:11:30.304Z,65.20
2018-04-08T23:13:57.911Z,64.30
2018-04-08T23:16:25.401Z,63.80
2018-04-08T23:18:54.211Z,63.80
2018-04-08T23:21:21.683Z,62.80
2018-04-08T23:23:49.284Z,64.00
2018-04-08T23:26:16.757Z,63.90
2018-04-08T23:28:44.262Z,64.70
2018-04-08T23:31:11.740Z,65.40
2018-04-08T23:33:39.358Z,66.00
2018-04-08T23:36:07.591Z,66.20
2018-04-08T23:38:35.075Z,66.00
2018-04-08T23:41:02.604Z,66.40
2018-04-08T23:43:30.116Z,67.30
2018-04-08T23:45:57.686Z,66.90
2018-04-08T23:48:25.207Z,67.60
2018-04-08T23:50:52.701Z,67.90
2018-04-08T23:53:20.208Z,68.80
2018-04-08T23:55:47.769Z,69.50
2018-04-08T23:58:15.243Z,69.80
